createdAt,value
2019-01-18T00:01:35.983Z,2.30
2019-01-18T00:04:06.855Z,2.90
2019-01-18T00:06:37.741Z,2.57
2019-01-18T00:09:09.107Z,2.27
2019-01-18T00:11:40.332Z,2.23
2019-01-18T00:14:11.126Z,1.87
2019-01-18T00:16:41.759Z,1.80
2019-01-18T00:19:12.592Z,1.80
2019-01-18T00:21:43.486Z,2.67
2019-01-18T00:24:14.161Z,1.80
2019-01-18T00:26:45.230Z,2.10
2019-01-18T00:29:16.106Z,2.87
2019-01-18T00:31:46.913Z,2.07
2019-01-18T00:34:17.716Z,1.73
2019-01-18T00:36:48.673Z,1.70
2019-01-18T00:39:19.251Z,1.73
2019-01-18T00:41:50.068Z,1.70
2019-01-18T00:44:21.030Z,1.50
2019-01-18T00:46:52.107Z,2.17
2019-01-18T00:49:22.897Z,1.77
2019-01-18T00:51:53.685Z,2.00
2019-01-18T00:54:24.565Z,2.03
2019-01-18T00:56:55.506Z,1.93
2019-01-18T00:59:26.385Z,2.10
2019-01-18T01:01:57.229Z,2.33
2019-01-18T01:04:28.026Z,2.17
2019-01-18T01:06:59.000Z,2.10
2019-01-18T01:09:29.792Z,2.10
2019-01-18T01:12:00.711Z,2.20
2019-01-18T01:14:31.602Z,2.10
2019-01-18T01:17:02.466Z,1.87
2019-01-18T01:19:33.442Z,2.67
2019-01-18T01:22:04.414Z,2.77
2019-01-18T01:24:34.986Z,2.90
2019-01-18T01:27:06.069Z,2.90
2019-01-18T01:29:42.945Z,2.07
2019-01-18T01:32:10.128Z,2.43
2019-01-18T01:34:41.057Z,2.53
2019-01-18T01:37:13.046Z,2.23
2019-01-18T01:39:43.956Z,2.30
2019-01-18T01:42:14.820Z,2.40
2019-01-18T01:44:45.698Z,2.77
2019-01-18T01:47:16.682Z,2.40
2019-01-18T01:49:47.570Z,2.60
2019-01-18T01:52:18.498Z,1.97
2019-01-18T01:54:49.461Z,1.70
2019-01-18T01:57:20.373Z,1.83
2019-01-18T01:59:51.126Z,2.07
2019-01-18T02:02:22.012Z,2.27
2019-01-18T02:04:52.796Z,2.40
2019-01-18T02:07:23.922Z,2.23
2019-01-18T02:09:54.817Z,2.67
2019-01-18T02:12:25.582Z,2.30
2019-01-18T02:14:56.278Z,2.53
2019-01-18T02:17:28.226Z,1.97
2019-01-18T02:19:59.038Z,2.87
2019-01-18T02:22:29.953Z,2.70
2019-01-18T02:25:00.715Z,2.90
2019-01-18T02:27:31.686Z,2.67
2019-01-18T02:30:02.505Z,2.63
2019-01-18T02:32:33.513Z,3.03
2019-01-18T02:35:04.874Z,2.47
2019-01-18T02:37:35.865Z,3.00
2019-01-18T02:40:07.727Z,2.60
2019-01-18T02:42:38.957Z,2.40
2019-01-18T02:45:11.109Z,2.90
2019-01-18T02:47:41.935Z,2.80
2019-01-18T02:50:13.182Z,3.50
2019-01-18T02:52:43.981Z,2.80
2019-01-18T02:55:15.462Z,2.40
2019-01-18T02:57:46.549Z,2.87
2019-01-18T03:00:21.754Z,2.50
2019-01-18T03:02:52.982Z,3.23
2019-01-18T03:05:25.771Z,2.37
2019-01-18T03:07:56.773Z,2.80
2019-01-18T03:10:32.031Z,3.50
2019-01-18T03:13:02.955Z,2.50
2019-01-18T03:15:33.823Z,3.10
2019-01-18T03:18:04.815Z,2.20
2019-01-18T03:20:35.598Z,3.10
2019-01-18T03:23:06.913Z,3.00
2019-01-18T03:25:37.803Z,3.23
2019-01-18T03:28:08.505Z,3.10
2019-01-18T03:30:39.359Z,4.00
2019-01-18T03:33:10.144Z,3.90
2019-01-18T03:35:40.969Z,3.23
2019-01-18T03:38:11.915Z,2.80
2019-01-18T03:40:42.844Z,3.13
2019-01-18T03:43:13.791Z,2.50
2019-01-18T03:45:44.584Z,3.60
2019-01-18T03:48:15.473Z,3.60
2019-01-18T03:50:46.387Z,2.67
2019-01-18T03:53:18.261Z,3.47
2019-01-18T03:55:49.389Z,2.80
2019-01-18T03:58:20.238Z,3.50
2019-01-18T04:00:51.037Z,2.87
2019-01-18T04:03:22.010Z,2.47
2019-01-18T04:05:52.905Z,2.63
2019-01-18T04:08:23.731Z,2.43
2019-01-18T04:10:54.714Z,2.97
2019-01-18T04:13:25.234Z,2.73
2019-01-18T04:15:55.878Z,3.30
2019-01-18T04:18:26.731Z,3.20
2019-01-18T04:20:57.350Z,3.20
2019-01-18T04:23:28.049Z,3.30
2019-01-18T04:25:58.915Z,2.63
2019-01-18T04:28:29.874Z,2.83
2019-01-18T04:31:00.573Z,2.80
2019-01-18T04:33:31.341Z,3.20
2019-01-18T04:36:02.226Z,3.43
2019-01-18T04:38:33.244Z,3.40
2019-01-18T04:41:04.142Z,3.20
2019-01-18T04:43:35.167Z,3.07
2019-01-18T04:46:06.087Z,2.90
2019-01-18T04:48:36.893Z,2.47
2019-01-18T04:51:07.796Z,3.10
2019-01-18T04:53:39.250Z,3.23
2019-01-18T04:56:09.987Z,3.27
2019-01-18T04:58:40.953Z,2.93
2019-01-18T05:01:11.746Z,3.33
2019-01-18T05:03:42.551Z,3.23
2019-01-18T05:06:13.425Z,3.20
2019-01-18T05:08:44.164Z,2.80
2019-01-18T05:11:15.066Z,2.37
2019-01-18T05:13:45.843Z,2.67
2019-01-18T05:16:16.735Z,3.40
2019-01-18T05:18:47.280Z,4.83
2019-01-18T05:21:17.822Z,3.40
2019-01-18T05:23:48.721Z,3.77
2019-01-18T05:26:19.597Z,4.77
2019-01-18T05:28:51.564Z,3.97
2019-01-18T05:31:22.399Z,4.10
2019-01-18T05:33:53.535Z,4.40
2019-01-18T05:36:24.005Z,4.20
2019-01-18T05:38:54.599Z,4.60
2019-01-18T05:41:25.073Z,4.40
2019-01-18T05:43:55.874Z,3.80
2019-01-18T05:46:26.775Z,4.30
2019-01-18T05:48:57.294Z,2.77
2019-01-18T05:51:27.858Z,4.43
2019-01-18T05:53:58.731Z,4.00
2019-01-18T05:56:29.333Z,4.00
2019-01-18T05:58:59.926Z,3.63
2019-01-18T06:01:30.543Z,4.47
2019-01-18T06:04:01.130Z,4.27
2019-01-18T06:06:31.610Z,3.47
2019-01-18T06:09:02.213Z,3.70
2019-01-18T06:11:33.686Z,3.70
2019-01-18T06:14:04.327Z,3.80
2019-01-18T06:16:34.796Z,4.07
2019-01-18T06:19:05.987Z,4.37
2019-01-18T06:21:36.693Z,4.20
2019-01-18T06:24:08.619Z,4.60
2019-01-18T06:26:39.160Z,3.97
2019-01-18T06:29:09.902Z,4.63
2019-01-18T06:31:40.388Z,3.90
2019-01-18T06:34:10.989Z,3.83
2019-01-18T06:36:41.472Z,2.80
2019-01-18T06:39:12.000Z,3.63
2019-01-18T06:41:52.139Z,3.87
2019-01-18T06:44:23.312Z,4.23
2019-01-18T06:46:54.523Z,7.03
2019-01-18T06:49:25.169Z,3.93
2019-01-18T06:51:55.716Z,3.77
2019-01-18T06:54:26.284Z,3.73
2019-01-18T06:56:56.944Z,3.60
2019-01-18T06:59:27.720Z,4.53
2019-01-18T07:01:58.624Z,4.00
2019-01-18T07:04:29.399Z,4.10
2019-01-18T07:07:00.292Z,3.90
2019-01-18T07:09:31.122Z,4.40
2019-01-18T07:12:01.558Z,6.00
2019-01-18T07:14:33.356Z,5.17
2019-01-18T07:17:03.944Z,4.47
2019-01-18T07:19:34.473Z,5.03
2019-01-18T07:22:05.077Z,4.90
2019-01-18T07:24:35.593Z,5.00
2019-01-18T07:27:06.078Z,5.07
2019-01-18T07:29:36.591Z,5.80
2019-01-18T07:32:07.087Z,5.50
2019-01-18T07:34:39.018Z,6.30
2019-01-18T07:37:09.489Z,6.13
2019-01-18T07:39:40.076Z,5.23
2019-01-18T07:42:10.547Z,6.07
2019-01-18T07:44:41.441Z,5.10
2019-01-18T07:47:11.911Z,6.57
2019-01-18T07:49:42.421Z,6.20
2019-01-18T07:52:12.900Z,5.80
2019-01-18T07:54:43.409Z,8.50
2019-01-18T07:57:14.387Z,9.80
2019-01-18T07:59:44.955Z,7.80
2019-01-18T08:02:15.426Z,7.00
2019-01-18T08:04:46.021Z,8.27
2019-01-18T08:07:16.814Z,7.23
2019-01-18T08:09:47.349Z,8.00
2019-01-18T08:12:17.827Z,6.77
2019-01-18T08:14:48.421Z,8.57
2019-01-18T08:17:18.929Z,6.33
2019-01-18T08:19:49.422Z,13.17
2019-01-18T08:22:20.070Z,5.93
2019-01-18T08:24:50.763Z,5.57
2019-01-18T08:27:21.234Z,5.60
2019-01-18T08:29:51.783Z,5.83
2019-01-18T08:32:22.261Z,5.10
2019-01-18T08:34:52.841Z,5.03
2019-01-18T08:37:23.776Z,3.93
2019-01-18T08:39:54.310Z,4.23
2019-01-18T08:42:25.099Z,4.90
2019-01-18T08:44:55.775Z,3.53
2019-01-18T08:47:27.327Z,4.17
2019-01-18T08:49:57.857Z,4.77
2019-01-18T08:52:28.656Z,3.87
2019-01-18T08:54:59.227Z,3.60
2019-01-18T08:57:29.723Z,4.17
2019-01-18T09:00:00.321Z,3.53
2019-01-18T09:02:30.793Z,3.87
2019-01-18T09:05:01.313Z,4.10
2019-01-18T09:07:31.792Z,4.67
2019-01-18T09:10:02.396Z,5.13
2019-01-18T09:12:32.874Z,4.70
2019-01-18T09:15:03.734Z,4.53
2019-01-18T09:17:34.207Z,4.53
2019-01-18T09:20:06.023Z,5.37
2019-01-18T09:22:36.534Z,4.33
2019-01-18T09:25:07.466Z,4.33
2019-01-18T09:27:38.039Z,4.77
2019-01-18T09:30:12.057Z,4.67
2019-01-18T09:32:43.813Z,6.03
2019-01-18T09:35:15.563Z,6.47
2019-01-18T09:37:46.399Z,4.73
2019-01-18T09:40:19.498Z,4.87
2019-01-18T09:42:50.080Z,4.80
2019-01-18T09:45:20.882Z,4.90
2019-01-18T09:47:51.730Z,3.97
2019-01-18T09:50:25.510Z,5.63
2019-01-18T09:52:56.296Z,5.03
2019-01-18T09:55:27.382Z,4.37
2019-01-18T09:57:57.882Z,7.00
2019-01-18T10:00:30.773Z,6.00
2019-01-18T10:03:01.897Z,5.77
2019-01-18T10:05:33.292Z,5.80
2019-01-18T10:08:05.198Z,5.33
2019-01-18T10:10:36.265Z,5.07
2019-01-18T10:13:06.726Z,4.90
2019-01-18T10:15:40.027Z,5.37
2019-01-18T10:18:10.633Z,4.57
2019-01-18T10:20:41.268Z,4.90
2019-01-18T10:23:12.476Z,4.67
2019-01-18T10:25:43.708Z,5.60
2019-01-18T10:28:14.278Z,5.77
2019-01-18T10:30:45.029Z,4.57
2019-01-18T10:33:15.501Z,5.07
2019-01-18T10:35:46.302Z,5.07
2019-01-18T10:38:16.809Z,5.60
2019-01-18T10:40:47.554Z,5.47
2019-01-18T10:43:18.075Z,6.80
2019-01-18T10:45:48.907Z,8.90
2019-01-18T10:48:19.375Z,6.77
2019-01-18T10:50:50.402Z,6.23
2019-01-18T10:53:20.875Z,7.20
2019-01-18T10:55:51.410Z,7.47
2019-01-18T10:58:22.026Z,5.70
2019-01-18T11:00:52.666Z,5.83
2019-01-18T11:03:23.136Z,5.57
2019-01-18T11:05:53.666Z,5.60
2019-01-18T11:08:24.137Z,5.13
2019-01-18T11:10:55.097Z,6.13
2019-01-18T11:13:25.557Z,5.37
2019-01-18T11:15:56.451Z,7.73
2019-01-18T11:18:27.331Z,7.10
2019-01-18T11:21:05.454Z,7.77
2019-01-18T11:23:36.269Z,10.53
2019-01-18T11:26:07.118Z,10.07
2019-01-18T11:28:37.805Z,7.47
2019-01-18T11:31:08.375Z,4.33
2019-01-18T11:33:39.098Z,5.13
2019-01-18T11:36:09.642Z,5.23
2019-01-18T11:38:40.532Z,5.10
2019-01-18T11:41:11.113Z,5.37
2019-01-18T11:43:41.593Z,6.00
2019-01-18T11:46:12.472Z,4.90
2019-01-18T11:48:43.398Z,5.90
2019-01-18T11:51:14.193Z,6.47
2019-01-18T11:53:44.970Z,5.30
2019-01-18T11:56:15.735Z,6.90
2019-01-18T11:58:46.238Z,7.70
2019-01-18T12:01:16.920Z,6.63
2019-01-18T12:03:47.768Z,6.77
2019-01-18T12:06:18.558Z,6.67
2019-01-18T12:08:49.442Z,5.80
2019-01-18T12:11:20.321Z,5.40
2019-01-18T12:13:51.250Z,5.17
2019-01-18T12:16:22.145Z,4.20
2019-01-18T12:18:53.946Z,4.03
2019-01-18T12:21:24.742Z,4.90
2019-01-18T12:23:55.586Z,3.93
2019-01-18T12:26:26.861Z,4.50
2019-01-18T12:28:57.806Z,4.50
2019-01-18T12:31:28.611Z,5.30
2019-01-18T12:33:59.342Z,6.50
2019-01-18T12:36:29.866Z,5.30
2019-01-18T12:39:00.706Z,5.93
2019-01-18T12:41:33.040Z,5.47
2019-01-18T12:44:03.542Z,5.73
2019-01-18T12:46:34.126Z,5.37
2019-01-18T12:49:04.968Z,5.87
2019-01-18T12:51:36.072Z,6.67
2019-01-18T12:54:06.950Z,4.20
2019-01-18T12:56:38.082Z,6.53
2019-01-18T12:59:08.866Z,4.93
2019-01-18T13:01:39.863Z,5.30
2019-01-18T13:04:10.537Z,4.63
2019-01-18T13:06:41.908Z,10.37
2019-01-18T13:09:12.829Z,5.57
2019-01-18T13:11:43.714Z,6.57
2019-01-18T13:14:14.507Z,6.30
2019-01-18T13:16:46.990Z,5.07
2019-01-18T13:19:20.549Z,10.87
2019-01-18T13:21:51.422Z,5.40
2019-01-18T13:24:22.306Z,3.50
2019-01-18T13:26:54.539Z,3.30
2019-01-18T13:29:25.317Z,3.73
2019-01-18T13:31:56.354Z,6.30
2019-01-18T13:34:27.226Z,4.80
2019-01-18T13:36:58.119Z,5.17
2019-01-18T13:39:29.008Z,6.33
2019-01-18T13:42:00.043Z,4.40
2019-01-18T13:44:31.802Z,2.30
2019-01-18T13:47:02.550Z,2.47
2019-01-18T13:49:33.339Z,4.60
2019-01-18T13:52:04.229Z,6.80
2019-01-18T13:54:35.126Z,7.60
2019-01-18T13:57:06.717Z,5.90
2019-01-18T13:59:37.538Z,3.90
2019-01-18T14:02:08.675Z,4.43
2019-01-18T14:04:39.414Z,4.40
2019-01-18T14:07:10.210Z,3.33
2019-01-18T14:09:40.978Z,5.37
2019-01-18T14:12:11.863Z,7.87
2019-01-18T14:14:42.898Z,5.20
2019-01-18T14:17:13.638Z,4.30
2019-01-18T14:19:44.408Z,6.87
2019-01-18T14:22:15.277Z,6.20
2019-01-18T14:24:45.798Z,4.27
2019-01-18T14:27:16.752Z,4.10
2019-01-18T14:29:47.822Z,3.73
2019-01-18T14:32:18.661Z,4.13
2019-01-18T14:34:49.553Z,3.50
2019-01-18T14:37:20.410Z,3.40
2019-01-18T14:39:51.198Z,3.30
2019-01-18T14:42:21.978Z,3.13
2019-01-18T14:44:52.766Z,2.83
2019-01-18T14:47:23.659Z,3.00
2019-01-18T14:49:54.365Z,2.67
2019-01-18T14:52:25.140Z,2.90
2019-01-18T14:54:55.941Z,2.93
2019-01-18T14:57:28.483Z,2.50
2019-01-18T14:59:59.346Z,3.00
2019-01-18T15:02:30.171Z,2.80
2019-01-18T15:05:00.818Z,2.47
2019-01-18T15:07:31.505Z,3.67
2019-01-18T15:10:05.115Z,3.97
2019-01-18T15:12:34.853Z,3.67
2019-01-18T15:15:06.514Z,4.00
2019-01-18T15:17:37.492Z,2.80
2019-01-18T15:20:12.978Z,3.17
2019-01-18T15:22:44.230Z,4.17
2019-01-18T15:25:15.082Z,4.03
2019-01-18T15:27:46.061Z,2.93
2019-01-18T15:30:19.287Z,6.73
2019-01-18T15:32:50.098Z,4.20
2019-01-18T15:35:22.823Z,4.10
2019-01-18T15:37:53.875Z,1.60
2019-01-18T15:40:26.114Z,3.87
2019-01-18T15:42:58.858Z,3.70
2019-01-18T15:45:29.721Z,2.90
2019-01-18T15:48:00.578Z,2.30
2019-01-18T15:50:33.960Z,3.70
2019-01-18T15:53:04.947Z,3.33
2019-01-18T15:55:36.007Z,3.17
2019-01-18T15:58:08.048Z,2.60
2019-01-18T16:00:40.998Z,4.53
2019-01-18T16:03:15.788Z,4.13
2019-01-18T16:05:45.622Z,3.90
2019-01-18T16:08:16.410Z,5.57
2019-01-18T16:10:47.199Z,4.70
2019-01-18T16:13:18.159Z,3.93
2019-01-18T16:15:57.992Z,8.73
2019-01-18T16:18:30.278Z,7.40
2019-01-18T16:21:01.027Z,4.07
2019-01-18T16:23:32.194Z,3.00
2019-01-18T16:26:03.106Z,2.83
2019-01-18T16:28:36.285Z,3.03
2019-01-18T16:31:07.137Z,3.27
2019-01-18T16:33:38.110Z,2.83
2019-01-18T16:36:09.242Z,3.10
2019-01-18T16:38:40.252Z,4.07
2019-01-18T16:41:11.990Z,7.30
2019-01-18T16:43:45.298Z,5.13
2019-01-18T16:46:15.951Z,6.43
2019-01-18T16:48:46.935Z,5.93
2019-01-18T16:51:17.728Z,3.63
2019-01-18T16:53:48.525Z,4.10
2019-01-18T16:56:19.379Z,3.03
2019-01-18T16:58:50.085Z,3.50
2019-01-18T17:01:20.971Z,3.30
2019-01-18T17:03:51.793Z,2.47
2019-01-18T17:06:22.573Z,3.23
2019-01-18T17:08:53.629Z,2.83
2019-01-18T17:11:24.515Z,2.67
2019-01-18T17:13:55.206Z,3.23
2019-01-18T17:16:26.297Z,2.83
2019-01-18T17:18:57.263Z,3.27
2019-01-18T17:21:29.380Z,4.83
2019-01-18T17:24:00.186Z,4.90
2019-01-18T17:26:31.115Z,3.93
2019-01-18T17:29:01.914Z,3.80
2019-01-18T17:31:33.070Z,3.90
2019-01-18T17:34:03.971Z,4.00
2019-01-18T17:37:10.898Z,5.97
2019-01-18T17:40:21.011Z,4.70
2019-01-18T17:43:44.805Z,3.70
2019-01-18T17:46:45.747Z,5.63
2019-01-18T17:50:24.816Z,5.23
2019-01-18T17:53:24.388Z,6.10
2019-01-18T17:56:26.362Z,8.57
2019-01-18T17:59:29.294Z,8.90
2019-01-18T18:02:32.570Z,7.13
2019-01-18T18:05:32.355Z,5.80
2019-01-18T18:08:43.655Z,6.93
2019-01-18T18:11:37.933Z,7.03
2019-01-18T18:14:43.711Z,7.80
2019-01-18T18:17:45.765Z,7.27
2019-01-18T18:21:11.023Z,6.60
2019-01-18T18:24:18.354Z,6.70
2019-01-18T18:27:28.302Z,7.37
2019-01-18T18:30:32.499Z,6.60
2019-01-18T18:33:33.829Z,7.23
2019-01-18T18:36:51.819Z,5.77
2019-01-18T18:40:06.534Z,6.40
2019-01-18T18:42:42.586Z,5.40
2019-01-18T18:46:06.580Z,7.10
2019-01-18T18:49:05.031Z,8.00
2019-01-18T18:52:12.751Z,6.83
2019-01-18T18:55:45.500Z,6.27
2019-01-18T18:58:45.764Z,7.07
2019-01-18T19:01:54.246Z,7.13
2019-01-18T19:04:47.307Z,7.30
2019-01-18T19:07:47.122Z,8.80
2019-01-18T19:10:42.224Z,12.53
2019-01-18T19:14:15.012Z,11.17
2019-01-18T19:17:15.999Z,9.87
2019-01-18T19:20:18.838Z,8.70
2019-01-18T19:23:29.415Z,9.20
2019-01-18T19:26:41.818Z,9.53
2019-01-18T19:29:46.454Z,9.30
2019-01-18T19:32:47.217Z,11.97
2019-01-18T19:35:38.346Z,11.23
2019-01-18T19:38:26.038Z,9.57
2019-01-18T19:41:45.617Z,10.03
2019-01-18T19:44:37.516Z,7.00
2019-01-18T19:47:47.604Z,6.20
2019-01-18T19:50:57.648Z,6.50
2019-01-18T19:53:57.304Z,7.10
2019-01-18T19:57:23.799Z,6.33
2019-01-18T20:00:22.191Z,8.37
2019-01-18T20:03:14.567Z,7.70
2019-01-18T20:06:12.553Z,8.83
2019-01-18T20:08:56.643Z,8.07
2019-01-18T20:12:04.354Z,7.20
2019-01-18T20:15:31.463Z,8.20
2019-01-18T20:18:31.804Z,8.73
2019-01-18T20:21:54.570Z,8.83
2019-01-18T20:25:10.218Z,7.33
2019-01-18T20:28:08.041Z,9.10
2019-01-18T20:31:00.401Z,8.60
2019-01-18T20:34:19.675Z,8.03
2019-01-18T20:37:30.975Z,8.90
2019-01-18T20:40:30.006Z,8.27
2019-01-18T20:43:44.716Z,7.43
2019-01-18T20:47:02.864Z,7.90
2019-01-18T20:50:30.013Z,7.73
2019-01-18T20:54:00.170Z,8.00
2019-01-18T20:57:14.489Z,7.10
2019-01-18T21:00:21.165Z,6.37
2019-01-18T21:03:39.427Z,6.93
2019-01-18T21:06:42.510Z,6.43
2019-01-18T21:09:41.532Z,6.53
2019-01-18T21:12:48.794Z,6.10
2019-01-18T21:16:00.414Z,6.23
2019-01-18T21:19:05.724Z,5.87
2019-01-18T21:22:32.416Z,5.30
2019-01-18T21:25:41.813Z,6.10
2019-01-18T21:28:49.110Z,5.27
2019-01-18T21:32:18.022Z,5.03
2019-01-18T21:35:47.912Z,4.70
2019-01-18T21:38:53.675Z,4.87
2019-01-18T21:41:58.836Z,5.60
2019-01-18T21:45:00.472Z,4.43
2019-01-18T21:48:30.103Z,5.70
2019-01-18T21:51:44.827Z,4.40
2019-01-18T21:55:01.463Z,5.07
2019-01-18T21:58:11.421Z,4.93
2019-01-18T22:01:41.089Z,4.10
2019-01-18T22:04:32.365Z,3.60
2019-01-18T22:07:36.822Z,3.67
2019-01-18T22:10:50.207Z,3.17
2019-01-18T22:13:42.281Z,3.00
2019-01-18T22:16:42.772Z,3.80
2019-01-18T22:20:15.415Z,3.93
2019-01-18T22:23:48.043Z,4.27
2019-01-18T22:26:46.247Z,3.70
2019-01-18T22:29:48.802Z,3.27
2019-01-18T22:32:55.383Z,5.10
2019-01-18T22:36:12.000Z,3.27
2019-01-18T22:39:16.347Z,3.73
2019-01-18T22:42:31.071Z,3.63
2019-01-18T22:45:19.165Z,3.30
2019-01-18T22:48:27.672Z,3.80
2019-01-18T22:51:30.217Z,2.97
2019-01-18T22:54:26.194Z,3.87
2019-01-18T22:57:16.331Z,3.47
2019-01-18T23:00:57.313Z,3.60
2019-01-18T23:04:04.958Z,4.20
2019-01-18T23:07:22.742Z,4.30
2019-01-18T23:10:49.539Z,4.70
2019-01-18T23:13:56.988Z,3.80
2019-01-18T23:17:03.098Z,3.77
2019-01-18T23:20:29.999Z,3.80
2019-01-18T23:23:45.784Z,4.10
2019-01-18T23:27:00.148Z,3.80
2019-01-18T23:30:07.447Z,4.47
2019-01-18T23:32:52.748Z,6.13
2019-01-18T23:36:02.470Z,12.23
2019-01-18T23:39:23.276Z,10.87
2019-01-18T23:43:04.427Z,9.30
2019-01-18T23:45:58.410Z,7.00
2019-01-18T23:49:01.347Z,7.40
2019-01-18T23:52:08.616Z,5.83
2019-01-18T23:55:23.177Z,6.50
2019-01-18T23:58:26.268Z,7.33
